sensor_id;sensor_type;location;lat;lon;timestamp;P1;durP1;ratioP1;P2;durP2;ratioP2
24787;SDS011;12883;52.662;5.196;2023-02-08T00:00:30;19.87;;;19.77;;
24787;SDS011;12883;52.662;5.196;2023-02-08T00:02:55;19.33;;;19.23;;
24787;SDS011;12883;52.662;5.196;2023-02-08T00:05:20;19.10;;;19.00;;
24787;SDS011;12883;52.662;5.196;2023-02-08T00:07:46;19.47;;;19.37;;
24787;SDS011;12883;52.662;5.196;2023-02-08T00:10:11;19.17;;;19.07;;
24787;SDS011;12883;52.662;5.196;2023-02-08T00:12:37;19.40;;;19.30;;
24787;SDS011;12883;52.662;5.196;2023-02-08T00:15:03;20.07;;;19.97;;
24787;SDS011;12883;52.662;5.196;2023-02-08T00:17:29;20.70;;;20.60;;
24787;SDS011;12883;52.662;5.196;2023-02-08T00:19:54;19.97;;;19.87;;
24787;SDS011;12883;52.662;5.196;2023-02-08T00:22:20;20.87;;;20.77;;
24787;SDS011;12883;52.662;5.196;2023-02-08T00:24:45;21.03;;;20.93;;
24787;SDS011;12883;52.662;5.196;2023-02-08T00:27:11;20.87;;;20.77;;
24787;SDS011;12883;52.662;5.196;2023-02-08T00:29:36;20.33;;;20.23;;
24787;SDS011;12883;52.662;5.196;2023-02-08T00:32:02;20.70;;;20.60;;
24787;SDS011;12883;52.662;5.196;2023-02-08T00:34:28;20.90;;;20.80;;
24787;SDS011;12883;52.662;5.196;2023-02-08T00:36:53;20.97;;;20.87;;
24787;SDS011;12883;52.662;5.196;2023-02-08T00:39:19;22.10;;;22.00;;
24787;SDS011;12883;52.662;5.196;2023-02-08T00:41:45;21.13;;;21.03;;
24787;SDS011;12883;52.662;5.196;2023-02-08T00:44:11;22.07;;;21.97;;
24787;SDS011;12883;52.662;5.196;2023-02-08T00:46:36;22.70;;;22.60;;
24787;SDS011;12883;52.662;5.196;2023-02-08T00:49:01;22.27;;;22.17;;
24787;SDS011;12883;52.662;5.196;2023-02-08T00:51:27;22.00;;;21.90;;
24787;SDS011;12883;52.662;5.196;2023-02-08T00:53:53;22.27;;;22.17;;
24787;SDS011;12883;52.662;5.196;2023-02-08T00:56:18;22.43;;;22.33;;
24787;SDS011;12883;52.662;5.196;2023-02-08T00:58:44;22.03;;;21.93;;
24787;SDS011;12883;52.662;5.196;2023-02-08T01:01:09;22.47;;;22.37;;
24787;SDS011;12883;52.662;5.196;2023-02-08T01:03:36;22.13;;;22.03;;
24787;SDS011;12883;52.662;5.196;2023-02-08T01:06:05;23.53;;;23.43;;
24787;SDS011;12883;52.662;5.196;2023-02-08T01:08:35;22.17;;;22.07;;
24787;SDS011;12883;52.662;5.196;2023-02-08T01:11:04;22.30;;;22.20;;
24787;SDS011;12883;52.662;5.196;2023-02-08T01:13:31;22.63;;;22.53;;
24787;SDS011;12883;52.662;5.196;2023-02-08T01:18:37;22.50;;;22.40;;
24787;SDS011;12883;52.662;5.196;2023-02-08T01:21:05;22.97;;;22.87;;
24787;SDS011;12883;52.662;5.196;2023-02-08T01:23:32;23.30;;;23.20;;
24787;SDS011;12883;52.662;5.196;2023-02-08T01:25:58;22.47;;;22.37;;
24787;SDS011;12883;52.662;5.196;2023-02-08T01:28:23;22.30;;;22.20;;
24787;SDS011;12883;52.662;5.196;2023-02-08T01:30:48;22.60;;;22.50;;
24787;SDS011;12883;52.662;5.196;2023-02-08T01:33:14;22.93;;;22.83;;
24787;SDS011;12883;52.662;5.196;2023-02-08T01:35:39;22.93;;;22.83;;
24787;SDS011;12883;52.662;5.196;2023-02-08T01:38:04;23.33;;;23.23;;
24787;SDS011;12883;52.662;5.196;2023-02-08T01:40:30;22.30;;;22.20;;
24787;SDS011;12883;52.662;5.196;2023-02-08T01:42:55;23.00;;;22.90;;
24787;SDS011;12883;52.662;5.196;2023-02-08T01:45:23;22.40;;;22.30;;
24787;SDS011;12883;52.662;5.196;2023-02-08T01:47:55;23.10;;;23.00;;
24787;SDS011;12883;52.662;5.196;2023-02-08T01:50:25;23.07;;;22.97;;
24787;SDS011;12883;52.662;5.196;2023-02-08T01:52:57;22.53;;;22.43;;
24787;SDS011;12883;52.662;5.196;2023-02-08T01:55:26;23.67;;;23.57;;
24787;SDS011;12883;52.662;5.196;2023-02-08T01:57:56;22.87;;;22.77;;
24787;SDS011;12883;52.662;5.196;2023-02-08T02:00:25;23.23;;;23.13;;
24787;SDS011;12883;52.662;5.196;2023-02-08T02:02:51;24.03;;;23.93;;
24787;SDS011;12883;52.662;5.196;2023-02-08T02:05:20;23.53;;;23.43;;
24787;SDS011;12883;52.662;5.196;2023-02-08T02:07:47;24.67;;;24.57;;
24787;SDS011;12883;52.662;5.196;2023-02-08T02:10:17;23.90;;;23.80;;
24787;SDS011;12883;52.662;5.196;2023-02-08T02:12:47;24.40;;;24.30;;
24787;SDS011;12883;52.662;5.196;2023-02-08T02:15:14;23.80;;;23.70;;
24787;SDS011;12883;52.662;5.196;2023-02-08T02:17:40;23.57;;;23.47;;
24787;SDS011;12883;52.662;5.196;2023-02-08T02:30:58;23.83;;;23.73;;
24787;SDS011;12883;52.662;5.196;2023-02-08T02:39:31;23.57;;;23.47;;
24787;SDS011;12883;52.662;5.196;2023-02-08T02:50:32;24.97;;;24.87;;
24787;SDS011;12883;52.662;5.196;2023-02-08T02:56:13;25.13;;;25.03;;
24787;SDS011;12883;52.662;5.196;2023-02-08T02:58:44;25.30;;;25.20;;
24787;SDS011;12883;52.662;5.196;2023-02-08T03:01:09;24.40;;;24.30;;
24787;SDS011;12883;52.662;5.196;2023-02-08T03:03:35;25.00;;;24.90;;
24787;SDS011;12883;52.662;5.196;2023-02-08T03:06:02;24.10;;;24.00;;
24787;SDS011;12883;52.662;5.196;2023-02-08T03:13:49;23.40;;;23.30;;
24787;SDS011;12883;52.662;5.196;2023-02-08T03:24:57;21.57;;;21.47;;
24787;SDS011;12883;52.662;5.196;2023-02-08T03:27:29;20.80;;;20.70;;
24787;SDS011;12883;52.662;5.196;2023-02-08T03:30:09;20.53;;;20.43;;
24787;SDS011;12883;52.662;5.196;2023-02-08T03:32:49;20.07;;;19.97;;
24787;SDS011;12883;52.662;5.196;2023-02-08T03:35:25;20.17;;;20.07;;
24787;SDS011;12883;52.662;5.196;2023-02-08T03:40:52;19.47;;;19.37;;
24787;SDS011;12883;52.662;5.196;2023-02-08T03:43:32;19.33;;;19.23;;
24787;SDS011;12883;52.662;5.196;2023-02-08T03:46:19;19.17;;;19.07;;
24787;SDS011;12883;52.662;5.196;2023-02-08T03:48:49;19.60;;;19.50;;
24787;SDS011;12883;52.662;5.196;2023-02-08T03:51:22;20.40;;;20.30;;
24787;SDS011;12883;52.662;5.196;2023-02-08T03:53:51;19.03;;;18.93;;
24787;SDS011;12883;52.662;5.196;2023-02-08T03:56:25;21.37;;;21.27;;
24787;SDS011;12883;52.662;5.196;2023-02-08T03:59:03;19.23;;;19.13;;
24787;SDS011;12883;52.662;5.196;2023-02-08T04:02:08;20.00;;;19.90;;
24787;SDS011;12883;52.662;5.196;2023-02-08T04:04:27;19.80;;;19.70;;
24787;SDS011;12883;52.662;5.196;2023-02-08T04:06:56;19.50;;;19.40;;
24787;SDS011;12883;52.662;5.196;2023-02-08T04:09:22;19.50;;;19.40;;
24787;SDS011;12883;52.662;5.196;2023-02-08T04:11:48;19.77;;;19.67;;
24787;SDS011;12883;52.662;5.196;2023-02-08T04:14:13;20.10;;;20.00;;
24787;SDS011;12883;52.662;5.196;2023-02-08T04:16:38;21.10;;;21.00;;
24787;SDS011;12883;52.662;5.196;2023-02-08T04:19:04;21.23;;;21.13;;
24787;SDS011;12883;52.662;5.196;2023-02-08T04:21:29;19.53;;;19.43;;
24787;SDS011;12883;52.662;5.196;2023-02-08T04:23:54;20.10;;;20.00;;
24787;SDS011;12883;52.662;5.196;2023-02-08T04:26:20;20.43;;;20.33;;
24787;SDS011;12883;52.662;5.196;2023-02-08T04:28:45;21.10;;;21.00;;
24787;SDS011;12883;52.662;5.196;2023-02-08T04:31:10;21.40;;;21.30;;
24787;SDS011;12883;52.662;5.196;2023-02-08T04:33:36;21.47;;;21.37;;
24787;SDS011;12883;52.662;5.196;2023-02-08T04:36:01;20.67;;;20.57;;
24787;SDS011;12883;52.662;5.196;2023-02-08T04:38:27;21.27;;;21.17;;
24787;SDS011;12883;52.662;5.196;2023-02-08T04:40:52;22.07;;;21.97;;
24787;SDS011;12883;52.662;5.196;2023-02-08T04:43:17;21.60;;;21.50;;
24787;SDS011;12883;52.662;5.196;2023-02-08T04:45:43;21.23;;;21.13;;
24787;SDS011;12883;52.662;5.196;2023-02-08T04:48:08;20.83;;;20.73;;
24787;SDS011;12883;52.662;5.196;2023-02-08T04:50:33;21.07;;;20.97;;
24787;SDS011;12883;52.662;5.196;2023-02-08T04:52:59;22.80;;;22.70;;
24787;SDS011;12883;52.662;5.196;2023-02-08T04:55:24;20.13;;;20.03;;
24787;SDS011;12883;52.662;5.196;2023-02-08T04:57:50;21.63;;;21.53;;
24787;SDS011;12883;52.662;5.196;2023-02-08T05:00:15;22.27;;;22.17;;
24787;SDS011;12883;52.662;5.196;2023-02-08T05:02:41;20.60;;;20.50;;
24787;SDS011;12883;52.662;5.196;2023-02-08T05:05:06;21.13;;;21.03;;
24787;SDS011;12883;52.662;5.196;2023-02-08T05:07:32;20.83;;;20.73;;
24787;SDS011;12883;52.662;5.196;2023-02-08T05:09:57;21.60;;;21.50;;
24787;SDS011;12883;52.662;5.196;2023-02-08T05:12:23;21.87;;;21.77;;
24787;SDS011;12883;52.662;5.196;2023-02-08T05:14:48;21.27;;;21.17;;
24787;SDS011;12883;52.662;5.196;2023-02-08T05:17:13;22.03;;;21.93;;
24787;SDS011;12883;52.662;5.196;2023-02-08T05:19:39;22.07;;;21.97;;
24787;SDS011;12883;52.662;5.196;2023-02-08T05:22:04;20.60;;;20.50;;
24787;SDS011;12883;52.662;5.196;2023-02-08T05:24:30;20.90;;;20.80;;
24787;SDS011;12883;52.662;5.196;2023-02-08T05:26:55;22.00;;;21.90;;
24787;SDS011;12883;52.662;5.196;2023-02-08T05:29:21;21.53;;;21.43;;
24787;SDS011;12883;52.662;5.196;2023-02-08T05:31:46;20.97;;;20.87;;
24787;SDS011;12883;52.662;5.196;2023-02-08T05:34:11;21.30;;;21.20;;
24787;SDS011;12883;52.662;5.196;2023-02-08T05:36:37;21.30;;;21.20;;
24787;SDS011;12883;52.662;5.196;2023-02-08T05:39:02;23.13;;;23.03;;
24787;SDS011;12883;52.662;5.196;2023-02-08T05:41:29;20.30;;;20.20;;
24787;SDS011;12883;52.662;5.196;2023-02-08T05:43:54;21.30;;;21.20;;
24787;SDS011;12883;52.662;5.196;2023-02-08T05:46:19;20.10;;;20.00;;
24787;SDS011;12883;52.662;5.196;2023-02-08T05:48:45;21.10;;;21.00;;
24787;SDS011;12883;52.662;5.196;2023-02-08T05:51:10;20.57;;;20.47;;
24787;SDS011;12883;52.662;5.196;2023-02-08T05:53:36;20.33;;;20.23;;
24787;SDS011;12883;52.662;5.196;2023-02-08T05:56:01;20.60;;;20.50;;
24787;SDS011;12883;52.662;5.196;2023-02-08T05:58:27;21.33;;;21.23;;
24787;SDS011;12883;52.662;5.196;2023-02-08T06:00:52;20.73;;;20.63;;
24787;SDS011;12883;52.662;5.196;2023-02-08T06:03:18;20.50;;;20.40;;
24787;SDS011;12883;52.662;5.196;2023-02-08T06:05:43;20.30;;;20.20;;
24787;SDS011;12883;52.662;5.196;2023-02-08T06:08:09;20.40;;;20.30;;
24787;SDS011;12883;52.662;5.196;2023-02-08T06:10:34;20.47;;;20.37;;
24787;SDS011;12883;52.662;5.196;2023-02-08T06:13:00;20.37;;;20.27;;
24787;SDS011;12883;52.662;5.196;2023-02-08T06:15:26;20.30;;;20.20;;
24787;SDS011;12883;52.662;5.196;2023-02-08T06:17:51;20.97;;;20.87;;
24787;SDS011;12883;52.662;5.196;2023-02-08T06:20:17;19.80;;;19.70;;
24787;SDS011;12883;52.662;5.196;2023-02-08T06:22:43;19.57;;;19.47;;
24787;SDS011;12883;52.662;5.196;2023-02-08T06:25:08;19.23;;;19.13;;
24787;SDS011;12883;52.662;5.196;2023-02-08T06:27:34;18.87;;;18.77;;
24787;SDS011;12883;52.662;5.196;2023-02-08T06:30:00;19.13;;;19.03;;
24787;SDS011;12883;52.662;5.196;2023-02-08T06:32:25;18.73;;;18.63;;
24787;SDS011;12883;52.662;5.196;2023-02-08T06:34:50;17.93;;;17.83;;
24787;SDS011;12883;52.662;5.196;2023-02-08T06:37:16;17.83;;;17.73;;
24787;SDS011;12883;52.662;5.196;2023-02-08T06:39:42;18.70;;;18.60;;
24787;SDS011;12883;52.662;5.196;2023-02-08T06:42:08;17.70;;;17.60;;
24787;SDS011;12883;52.662;5.196;2023-02-08T06:44:33;17.43;;;17.33;;
24787;SDS011;12883;52.662;5.196;2023-02-08T06:46:58;18.33;;;18.23;;
24787;SDS011;12883;52.662;5.196;2023-02-08T06:49:24;17.23;;;17.13;;
24787;SDS011;12883;52.662;5.196;2023-02-08T06:51:49;17.03;;;16.93;;
24787;SDS011;12883;52.662;5.196;2023-02-08T06:54:14;16.83;;;16.73;;
24787;SDS011;12883;52.662;5.196;2023-02-08T06:56:40;18.27;;;18.17;;
24787;SDS011;12883;52.662;5.196;2023-02-08T06:59:05;18.10;;;18.00;;
24787;SDS011;12883;52.662;5.196;2023-02-08T07:01:31;17.87;;;17.77;;
24787;SDS011;12883;52.662;5.196;2023-02-08T07:03:56;17.17;;;17.07;;
24787;SDS011;12883;52.662;5.196;2023-02-08T07:06:22;18.27;;;18.17;;
24787;SDS011;12883;52.662;5.196;2023-02-08T07:08:47;18.10;;;18.00;;
24787;SDS011;12883;52.662;5.196;2023-02-08T07:11:13;18.33;;;18.23;;
24787;SDS011;12883;52.662;5.196;2023-02-08T07:13:40;17.83;;;17.73;;
24787;SDS011;12883;52.662;5.196;2023-02-08T07:16:07;16.73;;;16.63;;
24787;SDS011;12883;52.662;5.196;2023-02-08T07:18:34;17.53;;;17.43;;
24787;SDS011;12883;52.662;5.196;2023-02-08T07:20:59;17.10;;;17.00;;
24787;SDS011;12883;52.662;5.196;2023-02-08T07:23:25;17.00;;;16.90;;
24787;SDS011;12883;52.662;5.196;2023-02-08T07:26:00;17.60;;;17.50;;
24787;SDS011;12883;52.662;5.196;2023-02-08T07:28:28;17.50;;;17.40;;
24787;SDS011;12883;52.662;5.196;2023-02-08T07:30:54;17.23;;;17.13;;
24787;SDS011;12883;52.662;5.196;2023-02-08T07:33:19;16.90;;;16.80;;
24787;SDS011;12883;52.662;5.196;2023-02-08T07:35:45;17.00;;;16.90;;
24787;SDS011;12883;52.662;5.196;2023-02-08T07:38:10;16.20;;;16.10;;
24787;SDS011;12883;52.662;5.196;2023-02-08T07:40:36;16.60;;;16.50;;
24787;SDS011;12883;52.662;5.196;2023-02-08T07:43:01;16.30;;;16.20;;
24787;SDS011;12883;52.662;5.196;2023-02-08T07:45:26;16.83;;;16.73;;
24787;SDS011;12883;52.662;5.196;2023-02-08T07:47:52;17.23;;;17.13;;
24787;SDS011;12883;52.662;5.196;2023-02-08T07:50:17;17.23;;;17.13;;
24787;SDS011;12883;52.662;5.196;2023-02-08T07:52:43;16.07;;;15.97;;
24787;SDS011;12883;52.662;5.196;2023-02-08T07:55:10;15.60;;;15.60;;
24787;SDS011;12883;52.662;5.196;2023-02-08T07:57:41;16.30;;;16.30;;
24787;SDS011;12883;52.662;5.196;2023-02-08T08:00:07;16.70;;;16.60;;
24787;SDS011;12883;52.662;5.196;2023-02-08T08:02:33;16.97;;;16.87;;
24787;SDS011;12883;52.662;5.196;2023-02-08T08:04:58;15.97;;;15.87;;
24787;SDS011;12883;52.662;5.196;2023-02-08T08:07:24;15.33;;;15.23;;
24787;SDS011;12883;52.662;5.196;2023-02-08T08:09:49;15.87;;;15.77;;
24787;SDS011;12883;52.662;5.196;2023-02-08T08:12:14;16.33;;;16.23;;
24787;SDS011;12883;52.662;5.196;2023-02-08T08:14:40;15.50;;;15.40;;
24787;SDS011;12883;52.662;5.196;2023-02-08T08:17:05;16.00;;;16.00;;
24787;SDS011;12883;52.662;5.196;2023-02-08T08:19:30;16.20;;;16.10;;
24787;SDS011;12883;52.662;5.196;2023-02-08T08:21:56;15.43;;;15.33;;
24787;SDS011;12883;52.662;5.196;2023-02-08T08:24:21;14.30;;;14.30;;
24787;SDS011;12883;52.662;5.196;2023-02-08T08:26:46;15.63;;;15.63;;
24787;SDS011;12883;52.662;5.196;2023-02-08T08:29:12;15.27;;;15.20;;
24787;SDS011;12883;52.662;5.196;2023-02-08T08:31:38;15.53;;;15.43;;
24787;SDS011;12883;52.662;5.196;2023-02-08T08:34:03;15.43;;;15.43;;
24787;SDS011;12883;52.662;5.196;2023-02-08T08:36:29;15.70;;;15.60;;
24787;SDS011;12883;52.662;5.196;2023-02-08T08:38:54;15.93;;;15.83;;
24787;SDS011;12883;52.662;5.196;2023-02-08T08:41:20;14.37;;;14.37;;
24787;SDS011;12883;52.662;5.196;2023-02-08T08:43:47;15.17;;;15.17;;
24787;SDS011;12883;52.662;5.196;2023-02-08T08:46:12;15.83;;;15.73;;
24787;SDS011;12883;52.662;5.196;2023-02-08T08:48:40;15.20;;;15.20;;
24787;SDS011;12883;52.662;5.196;2023-02-08T08:51:05;14.33;;;14.33;;
24787;SDS011;12883;52.662;5.196;2023-02-08T08:53:31;14.20;;;14.20;;
24787;SDS011;12883;52.662;5.196;2023-02-08T08:55:56;14.47;;;14.47;;
24787;SDS011;12883;52.662;5.196;2023-02-08T08:58:22;14.40;;;14.40;;
24787;SDS011;12883;52.662;5.196;2023-02-08T09:00:47;14.40;;;14.40;;
24787;SDS011;12883;52.662;5.196;2023-02-08T09:03:13;15.17;;;15.07;;
24787;SDS011;12883;52.662;5.196;2023-02-08T09:05:38;14.57;;;14.53;;
24787;SDS011;12883;52.662;5.196;2023-02-08T09:08:04;14.77;;;14.70;;
24787;SDS011;12883;52.662;5.196;2023-02-08T09:10:29;14.50;;;14.50;;
24787;SDS011;12883;52.662;5.196;2023-02-08T09:12:55;13.83;;;13.83;;
24787;SDS011;12883;52.662;5.196;2023-02-08T09:15:20;14.23;;;14.17;;
24787;SDS011;12883;52.662;5.196;2023-02-08T09:17:46;14.17;;;14.17;;
24787;SDS011;12883;52.662;5.196;2023-02-08T09:20:11;14.30;;;14.23;;
24787;SDS011;12883;52.662;5.196;2023-02-08T09:22:37;14.13;;;14.13;;
24787;SDS011;12883;52.662;5.196;2023-02-08T09:25:02;13.03;;;13.03;;
24787;SDS011;12883;52.662;5.196;2023-02-08T09:27:28;12.83;;;12.83;;
24787;SDS011;12883;52.662;5.196;2023-02-08T09:29:53;13.67;;;13.67;;
24787;SDS011;12883;52.662;5.196;2023-02-08T09:32:19;14.00;;;14.00;;
24787;SDS011;12883;52.662;5.196;2023-02-08T09:34:46;13.90;;;13.90;;
24787;SDS011;12883;52.662;5.196;2023-02-08T09:37:11;12.60;;;12.60;;
24787;SDS011;12883;52.662;5.196;2023-02-08T09:39:37;12.70;;;12.70;;
24787;SDS011;12883;52.662;5.196;2023-02-08T09:47:37;13.07;;;13.07;;
24787;SDS011;12883;52.662;5.196;2023-02-08T09:50:32;12.80;;;12.80;;
24787;SDS011;12883;52.662;5.196;2023-02-08T09:53:10;12.67;;;12.67;;
24787;SDS011;12883;52.662;5.196;2023-02-08T09:55:45;12.50;;;12.50;;
24787;SDS011;12883;52.662;5.196;2023-02-08T09:58:23;13.40;;;13.40;;
24787;SDS011;12883;52.662;5.196;2023-02-08T10:01:02;12.10;;;12.10;;
24787;SDS011;12883;52.662;5.196;2023-02-08T10:03:40;12.20;;;12.20;;
24787;SDS011;12883;52.662;5.196;2023-02-08T10:06:12;12.03;;;12.03;;
24787;SDS011;12883;52.662;5.196;2023-02-08T10:08:40;12.07;;;12.07;;
24787;SDS011;12883;52.662;5.196;2023-02-08T10:11:22;13.00;;;13.00;;
24787;SDS011;12883;52.662;5.196;2023-02-08T10:14:29;12.60;;;12.60;;
24787;SDS011;12883;52.662;5.196;2023-02-08T10:23:01;12.50;;;12.50;;
24787;SDS011;12883;52.662;5.196;2023-02-08T10:36:35;11.87;;;11.87;;
24787;SDS011;12883;52.662;5.196;2023-02-08T10:39:09;12.23;;;12.23;;
24787;SDS011;12883;52.662;5.196;2023-02-08T10:41:39;12.40;;;12.40;;
24787;SDS011;12883;52.662;5.196;2023-02-08T10:44:10;13.33;;;13.33;;
24787;SDS011;12883;52.662;5.196;2023-02-08T10:46:42;13.00;;;13.00;;
24787;SDS011;12883;52.662;5.196;2023-02-08T10:49:31;12.07;;;12.07;;
24787;SDS011;12883;52.662;5.196;2023-02-08T10:52:03;13.00;;;13.00;;
24787;SDS011;12883;52.662;5.196;2023-02-08T10:54:30;12.83;;;12.83;;
24787;SDS011;12883;52.662;5.196;2023-02-08T10:57:06;13.13;;;13.03;;
24787;SDS011;12883;52.662;5.196;2023-02-08T10:59:45;12.53;;;12.53;;
24787;SDS011;12883;52.662;5.196;2023-02-08T11:02:32;12.97;;;12.97;;
24787;SDS011;12883;52.662;5.196;2023-02-08T11:05:05;13.07;;;13.07;;
24787;SDS011;12883;52.662;5.196;2023-02-08T11:07:42;13.90;;;13.90;;
24787;SDS011;12883;52.662;5.196;2023-02-08T11:12:43;13.00;;;13.00;;
24787;SDS011;12883;52.662;5.196;2023-02-08T11:15:20;11.80;;;11.80;;
24787;SDS011;12883;52.662;5.196;2023-02-08T11:17:54;12.60;;;12.60;;
24787;SDS011;12883;52.662;5.196;2023-02-08T11:20:25;13.60;;;13.60;;
24787;SDS011;12883;52.662;5.196;2023-02-08T11:22:56;13.57;;;13.57;;
24787;SDS011;12883;52.662;5.196;2023-02-08T11:25:36;13.63;;;13.60;;
24787;SDS011;12883;52.662;5.196;2023-02-08T11:28:03;12.63;;;12.63;;
24787;SDS011;12883;52.662;5.196;2023-02-08T11:30:53;12.30;;;12.30;;
24787;SDS011;12883;52.662;5.196;2023-02-08T11:33:27;13.10;;;13.10;;
24787;SDS011;12883;52.662;5.196;2023-02-08T11:35:58;13.37;;;13.37;;
24787;SDS011;12883;52.662;5.196;2023-02-08T11:38:26;13.20;;;13.20;;
24787;SDS011;12883;52.662;5.196;2023-02-08T11:40:53;13.33;;;13.30;;
24787;SDS011;12883;52.662;5.196;2023-02-08T11:43:26;13.63;;;13.60;;
24787;SDS011;12883;52.662;5.196;2023-02-08T11:45:54;14.03;;;13.93;;
24787;SDS011;12883;52.662;5.196;2023-02-08T11:49:04;13.90;;;13.80;;
24787;SDS011;12883;52.662;5.196;2023-02-08T11:51:22;13.03;;;13.03;;
24787;SDS011;12883;52.662;5.196;2023-02-08T11:53:54;14.10;;;14.10;;
24787;SDS011;12883;52.662;5.196;2023-02-08T11:56:24;14.10;;;14.00;;
24787;SDS011;12883;52.662;5.196;2023-02-08T12:01:36;13.50;;;13.50;;
24787;SDS011;12883;52.662;5.196;2023-02-08T12:04:04;13.97;;;13.87;;
24787;SDS011;12883;52.662;5.196;2023-02-08T12:09:50;13.90;;;13.87;;
24787;SDS011;12883;52.662;5.196;2023-02-08T12:18:31;13.43;;;13.43;;
24787;SDS011;12883;52.662;5.196;2023-02-08T12:21:25;13.80;;;13.70;;
24787;SDS011;12883;52.662;5.196;2023-02-08T12:23:55;13.73;;;13.70;;
24787;SDS011;12883;52.662;5.196;2023-02-08T12:31:50;12.97;;;12.97;;
24787;SDS011;12883;52.662;5.196;2023-02-08T12:53:42;13.43;;;13.43;;
24787;SDS011;12883;52.662;5.196;2023-02-08T12:56:14;13.60;;;13.60;;
24787;SDS011;12883;52.662;5.196;2023-02-08T12:58:46;13.57;;;13.57;;
24787;SDS011;12883;52.662;5.196;2023-02-08T13:01:28;13.63;;;13.63;;
24787;SDS011;12883;52.662;5.196;2023-02-08T13:06:42;12.67;;;12.67;;
24787;SDS011;12883;52.662;5.196;2023-02-08T13:12:13;12.13;;;12.13;;
24787;SDS011;12883;52.662;5.196;2023-02-08T13:14:48;13.10;;;13.00;;
24787;SDS011;12883;52.662;5.196;2023-02-08T13:17:20;13.40;;;13.40;;
24787;SDS011;12883;52.662;5.196;2023-02-08T13:19:59;12.97;;;12.97;;
24787;SDS011;12883;52.662;5.196;2023-02-08T13:25:06;11.93;;;11.93;;
24787;SDS011;12883;52.662;5.196;2023-02-08T13:27:41;11.80;;;11.80;;
24787;SDS011;12883;52.662;5.196;2023-02-08T13:30:06;13.10;;;13.10;;
24787;SDS011;12883;52.662;5.196;2023-02-08T13:32:44;13.03;;;13.03;;
24787;SDS011;12883;52.662;5.196;2023-02-08T13:35:27;12.90;;;12.90;;
24787;SDS011;12883;52.662;5.196;2023-02-08T13:38:00;12.73;;;12.73;;
24787;SDS011;12883;52.662;5.196;2023-02-08T13:40:31;13.63;;;13.63;;
24787;SDS011;12883;52.662;5.196;2023-02-08T13:43:01;13.30;;;13.30;;
24787;SDS011;12883;52.662;5.196;2023-02-08T13:45:33;13.60;;;13.60;;
24787;SDS011;12883;52.662;5.196;2023-02-08T13:48:07;12.83;;;12.83;;
24787;SDS011;12883;52.662;5.196;2023-02-08T13:50:51;13.27;;;13.27;;
24787;SDS011;12883;52.662;5.196;2023-02-08T13:56:02;14.00;;;13.90;;
24787;SDS011;12883;52.662;5.196;2023-02-08T14:03:35;13.17;;;13.17;;
24787;SDS011;12883;52.662;5.196;2023-02-08T14:08:58;13.87;;;13.77;;
24787;SDS011;12883;52.662;5.196;2023-02-08T14:17:23;11.17;;;11.17;;
24787;SDS011;12883;52.662;5.196;2023-02-08T14:19:55;11.07;;;11.07;;
24787;SDS011;12883;52.662;5.196;2023-02-08T14:22:23;10.67;;;10.67;;
24787;SDS011;12883;52.662;5.196;2023-02-08T14:25:00;10.20;;;10.20;;
24787;SDS011;12883;52.662;5.196;2023-02-08T14:27:38;10.20;;;10.20;;
24787;SDS011;12883;52.662;5.196;2023-02-08T14:32:38;10.10;;;10.10;;
24787;SDS011;12883;52.662;5.196;2023-02-08T14:37:37;10.47;;;10.47;;
24787;SDS011;12883;52.662;5.196;2023-02-08T14:42:54;10.63;;;10.63;;
24787;SDS011;12883;52.662;5.196;2023-02-08T14:45:27;10.07;;;10.07;;
24787;SDS011;12883;52.662;5.196;2023-02-08T14:51:13;10.47;;;10.37;;
24787;SDS011;12883;52.662;5.196;2023-02-08T14:53:48;10.23;;;10.23;;
24787;SDS011;12883;52.662;5.196;2023-02-08T14:56:28;10.23;;;10.23;;
24787;SDS011;12883;52.662;5.196;2023-02-08T14:59:05;10.40;;;10.40;;
24787;SDS011;12883;52.662;5.196;2023-02-08T15:04:09;10.70;;;10.70;;
24787;SDS011;12883;52.662;5.196;2023-02-08T15:06:40;10.83;;;10.83;;
24787;SDS011;12883;52.662;5.196;2023-02-08T15:09:17;10.77;;;10.77;;
24787;SDS011;12883;52.662;5.196;2023-02-08T15:11:52;11.47;;;11.40;;
24787;SDS011;12883;52.662;5.196;2023-02-08T15:14:26;10.77;;;10.77;;
24787;SDS011;12883;52.662;5.196;2023-02-08T15:16:54;10.37;;;10.37;;
24787;SDS011;12883;52.662;5.196;2023-02-08T15:19:30;10.93;;;10.93;;
24787;SDS011;12883;52.662;5.196;2023-02-08T15:24:54;11.27;;;11.27;;
24787;SDS011;12883;52.662;5.196;2023-02-08T15:27:26;11.83;;;11.83;;
24787;SDS011;12883;52.662;5.196;2023-02-08T15:29:53;12.97;;;12.97;;
24787;SDS011;12883;52.662;5.196;2023-02-08T15:32:22;11.47;;;11.47;;
24787;SDS011;12883;52.662;5.196;2023-02-08T15:34:53;11.67;;;11.67;;
24787;SDS011;12883;52.662;5.196;2023-02-08T15:37:21;11.33;;;11.33;;
24787;SDS011;12883;52.662;5.196;2023-02-08T15:39:48;10.83;;;10.83;;
24787;SDS011;12883;52.662;5.196;2023-02-08T15:42:20;11.47;;;11.47;;
24787;SDS011;12883;52.662;5.196;2023-02-08T15:44:47;12.50;;;12.50;;
24787;SDS011;12883;52.662;5.196;2023-02-08T15:47:26;10.93;;;10.93;;
24787;SDS011;12883;52.662;5.196;2023-02-08T15:49:54;11.47;;;11.47;;
24787;SDS011;12883;52.662;5.196;2023-02-08T15:52:22;11.63;;;11.63;;
24787;SDS011;12883;52.662;5.196;2023-02-08T15:54:51;11.70;;;11.70;;
24787;SDS011;12883;52.662;5.196;2023-02-08T15:57:21;11.50;;;11.50;;
24787;SDS011;12883;52.662;5.196;2023-02-08T16:00:20;11.37;;;11.37;;
24787;SDS011;12883;52.662;5.196;2023-02-08T16:02:49;11.60;;;11.60;;
24787;SDS011;12883;52.662;5.196;2023-02-08T16:05:29;12.10;;;12.10;;
24787;SDS011;12883;52.662;5.196;2023-02-08T16:07:56;10.97;;;10.97;;
24787;SDS011;12883;52.662;5.196;2023-02-08T16:10:33;11.00;;;11.00;;
24787;SDS011;12883;52.662;5.196;2023-02-08T16:13:03;11.43;;;11.43;;
24787;SDS011;12883;52.662;5.196;2023-02-08T16:21:03;11.40;;;11.40;;
24787;SDS011;12883;52.662;5.196;2023-02-08T16:23:32;9.97;;;9.97;;
24787;SDS011;12883;52.662;5.196;2023-02-08T16:26:08;11.00;;;11.00;;
24787;SDS011;12883;52.662;5.196;2023-02-08T16:28:41;10.90;;;10.90;;
24787;SDS011;12883;52.662;5.196;2023-02-08T16:31:06;10.97;;;10.97;;
24787;SDS011;12883;52.662;5.196;2023-02-08T16:33:32;9.40;;;9.40;;
24787;SDS011;12883;52.662;5.196;2023-02-08T16:36:01;10.20;;;10.20;;
24787;SDS011;12883;52.662;5.196;2023-02-08T16:38:27;10.40;;;10.40;;
24787;SDS011;12883;52.662;5.196;2023-02-08T16:40:55;9.70;;;9.70;;
24787;SDS011;12883;52.662;5.196;2023-02-08T16:48:34;10.00;;;10.00;;
24787;SDS011;12883;52.662;5.196;2023-02-08T16:51:01;9.97;;;9.97;;
24787;SDS011;12883;52.662;5.196;2023-02-08T16:53:28;9.40;;;9.40;;
24787;SDS011;12883;52.662;5.196;2023-02-08T16:55:54;10.37;;;10.37;;
24787;SDS011;12883;52.662;5.196;2023-02-08T16:58:20;10.73;;;10.73;;
24787;SDS011;12883;52.662;5.196;2023-02-08T17:00:46;10.10;;;10.10;;
24787;SDS011;12883;52.662;5.196;2023-02-08T17:03:11;10.47;;;10.47;;
24787;SDS011;12883;52.662;5.196;2023-02-08T17:05:37;9.93;;;9.93;;
24787;SDS011;12883;52.662;5.196;2023-02-08T17:08:05;10.10;;;10.10;;
24787;SDS011;12883;52.662;5.196;2023-02-08T17:10:35;9.43;;;9.43;;
24787;SDS011;12883;52.662;5.196;2023-02-08T17:13:01;9.50;;;9.50;;